• Join FlightAware (Why Join?)
  • Login
  • US Flag 
06:23PM EST


 

Airport Tracker/Info


-or-


 

Live Flight TrackerFlight Track Log ✈ SKW6528 ✈ 26-Apr-2013 ✈ KDEN - KSGF

Flight Track Log - Related Links

Times and Time Zones

All times are in EDT time to prevent confusion due to time zone crossing. See the SKW6528 flight status page for this flight to view local times or setup timezone preferences in your user account.

Time Position Orientation Groundspeed Altitude Reporting Facility
EDT Latitude Longitude Course Direction KTS MPH feet Rate Location/Type
12:27PM 39.7684 -104.0252 105° East  Level FlightAware Approximate
12:28PM 39.7553 -103.8638 98° East  Level FlightAware Approximate
12:29PM 39.7306 -103.7063 95° East  Level FlightAware Approximate
12:30PM 39.7205 -103.5441 95° East  Level FlightAware Approximate
12:31PM 39.7062 -103.3826 98° East  Level FlightAware Approximate
12:32PM 39.6892 -103.2215 98° East  Level FlightAware Approximate
12:33PM 39.6771 -103.0598 94° East  Level FlightAware Approximate
12:34PM 39.6675 -102.8977 94° East  Level FlightAware Approximate
12:35PM 39.6488 -102.7371 97° East  Level FlightAware Approximate
12:36PM 39.6335 -102.5759 97° East  Level FlightAware Approximate
12:37PM 39.6181 -102.4147 97° East  Level FlightAware Approximate
12:38PM 39.6072 -102.2549 113° Southeast  Level FlightAware Approximate
12:39PM 39.5902 -102.0951 95° East  Level FlightAware Approximate
12:40PM 39.5834 -101.9332 90° East  Level FlightAware Approximate
12:41PM 39.5708 -101.7722 100° East  Level FlightAware Approximate
12:42PM 39.5497 -101.6123 96° East  Level FlightAware Approximate
12:43PM 39.5373 -101.4509 96° East  Level FlightAware Approximate
12:44PM 39.5166 -101.2911 101° East  Level FlightAware Approximate
12:45PM 39.4927 -101.1319 100° East  Level FlightAware Approximate
12:46PM 39.4699 -100.9725 100° East  Level FlightAware Approximate
12:47PM 39.4469 -100.8133 101° East  Level FlightAware Approximate
12:48PM 39.4237 -100.6541 101° East  Level FlightAware Approximate
12:49PM 39.4002 -100.4950 101° East  Level FlightAware Approximate
12:50PM 39.3766 -100.3361 101° East  Level FlightAware Approximate
12:51PM 39.3527 -100.1772 101° East  Level FlightAware Approximate
12:52PM 39.3286 -100.0185 101° East  Level FlightAware Approximate
12:53PM 39.3043 -99.8599 101° East  Level FlightAware Approximate
12:54PM 39.2798 -99.7013 101° East  Level FlightAware Approximate
12:55PM 39.2551 -99.5429 101° East  Level FlightAware Approximate
12:56PM 39.2301 -99.3846 101° East  Level FlightAware Approximate
12:57PM 39.2048 -99.2265 102° East  Level FlightAware Approximate
12:58PM 39.1792 -99.0685 102° East  Level FlightAware Approximate
12:59PM 39.1534 -98.9106 102° East  Level FlightAware Approximate
01:00PM 39.1274 -98.7528 102° East  Level FlightAware Approximate
01:01PM 39.1012 -98.5952 102° East  Level FlightAware Approximate
01:02PM 39.0747 -98.4376 102° East  Level FlightAware Approximate
01:03PM 39.0480 -98.2802 102° East  Level FlightAware Approximate
01:04PM 39.0212 -98.1229 102° East  Level FlightAware Approximate
01:05PM 38.9896 -97.9676 113° Southeast  Level FlightAware Approximate
01:06PM 38.9415 -97.8190 113° Southeast  Level FlightAware Approximate
01:07PM 38.8933 -97.6706 113° Southeast  Level FlightAware Approximate
01:08PM 38.8450 -97.5224 113° Southeast  Level FlightAware Approximate
01:09PM 38.7964 -97.3744 113° Southeast  Level FlightAware Approximate
01:10PM 38.7476 -97.2267 113° Southeast  Level FlightAware Approximate
01:11PM 38.6987 -97.0791 113° Southeast  Level FlightAware Approximate
01:12PM 38.6495 -96.9317 113° Southeast  Level FlightAware Approximate
01:13PM 38.5985 -96.7855 114° Southeast  Level FlightAware Approximate
01:14PM 38.5466 -96.6399 113° Southeast  Level FlightAware Approximate
01:15PM 38.4970 -96.4931 113° Southeast  Level FlightAware Approximate
01:16PM 38.4473 -96.3465 113° Southeast  Level FlightAware Approximate
01:17PM 38.3974 -96.2001 113° Southeast  Level FlightAware Approximate
01:18PM 38.3472 -96.0538 114° Southeast  Level FlightAware Approximate
01:19PM 38.2967 -95.9079 115° Southeast  Level FlightAware Approximate
01:20PM 38.2429 -95.7641 115° Southeast  Level FlightAware Approximate
01:21PM 38.1922 -95.6188 108° East  Level FlightAware Approximate
01:22PM 38.1322 -95.4802 114° Southeast  Level FlightAware Approximate
01:23PM 38.0804 -95.3355 114° Southeast  Level FlightAware Approximate
01:24PM 38.0283 -95.1911 115° Southeast  Level FlightAware Approximate
01:25PM 37.9791 -95.0454 104° East  Level FlightAware Approximate
01:26PM 37.9376 -94.8962 113° Southeast  Level FlightAware Approximate
01:27PM 37.8818 -94.7543 117° Southeast  Level FlightAware Approximate
01:28PM 37.8260 -94.6125 114° Southeast  Level FlightAware Approximate
01:29PM 37.7751 -94.4679 114° Southeast  Level FlightAware Approximate
01:30PM 37.7239 -94.3235 114° Southeast  Level FlightAware Approximate
01:31PM 37.6725 -94.1794 114° Southeast  Level FlightAware Approximate
01:32PM 37.6135 -94.0405 113° Southeast  Level FlightAware Approximate
01:33PM 37.5650 -93.8950 113° Southeast  Level FlightAware Approximate
01:34PM 37.5112 -93.7526 117° Southeast  Level FlightAware Approximate
01:35PM 37.4548 -93.6119 117° Southeast  Level FlightAware Approximate
01:36PM 37.4011 -93.4700 113° Southeast  Level FlightAware Approximate
01:37PM 37.3455 -93.3351 198° South  Level FlightAware Approximate
01:38PM 37.2457 -93.3886 202° Southwest  Level Estimated
01:39PM 37.2457 -93.3886 202° Southwest  Level Estimated
01:40PM 37.2457 -93.3886 202° Southwest  Level Estimated
01:41PM 37.2457 -93.3886 202° Southwest  Level Estimated
01:42PM 37.2457 -93.3886 202° Southwest  Level Estimated
01:43PM 37.2457 -93.3886 202° Southwest  Level Estimated
01:44PM 37.2457 -93.3886 202° Southwest  Level Estimated
01:45PM 37.2457 -93.3886 202° Southwest  Level Estimated
01:46PM 37.2457 -93.3886 202° Southwest  Level Estimated
01:47PM 37.2457 -93.3886 202° Southwest  Level Estimated
01:48PM 37.2457 -93.3886 202° Southwest  Level Estimated